CW5091 Weather Reports


Display with metric or nautical units.
time (UTC)temp
F
wind
direction
speed
MPH
gust
MPH
rain 1hr
in
rain 24hr
in
rain mn
in
humidity
%
barometer
mb
20200404222826 53 212 1.0 10.0 0.00 0.00 0.00 45 1008.3
20200404222525 52 212 2.0 0.0 0.00 0.00 0.00 45 1008.2
20200404222334 52 22 3.0 10.0 0.00 0.00 0.00 44 1008.3
20200404222014 52 202 2.0 0.0 0.00 0.00 0.00 43 1008.2
20200404221829 52 272 2.0 10.0 0.00 0.00 0.00 45 1008.3
20200404221504 52 326 2.0 0.0 0.00 0.00 0.00 49 1007.7
20200404221321 52 179 1.0 7.0 0.00 0.00 0.00 48 1008.6
20200404221052 52 199 2.0 0.0 0.00 0.00 0.00 46 1007.7
20200404220833 53 309 2.0 6.0 0.00 0.00 0.00 47 1008.6
20200404220545 53 326 2.0 0.0 0.00 0.00 0.00 49 1007.7
20200404220327 54 224 2.0 8.0 0.00 0.00 0.00 49 1008.6
20200404220103 54 203 2.0 0.0 0.00 0.00 0.00 47 1007.7
20200404215822 55 211 3.0 9.0 0.00 0.00 0.00 46 1009.1
20200404215534 55 31 2.0 0.0 0.00 0.00 0.00 44 1007.4
20200404215338 55 314 3.0 9.0 0.00 0.00 0.00 43 1009.1
20200404215025 55 295 3.0 0.0 0.00 0.00 0.00 43 1007.4
20200404214835 55 214 2.0 12.0 0.00 0.00 0.00 42 1009.1
20200404214541 55 23 2.0 0.0 0.00 0.00 0.00 40 1007.7
20200404214330 55 198 4.0 12.0 0.00 0.00 0.00 40 1008.6
20200404214034 55 260 2.0 0.0 0.00 0.00 0.00 42 1007.7
20200404213825 55 187 2.0 8.0 0.00 0.00 0.00 42 1008.6
20200404213524 54 205 2.0 0.0 0.00 0.00 0.00 43 1007.7
20200404213324 55 227 4.0 7.0 0.00 0.00 0.00 43 1008.6
20200404213121 54 194 1.0 0.0 0.00 0.00 0.00 42 1007.4
20200404212822 54 246 2.0 6.0 0.00 0.00 0.00 42 1008.3
20200404212534 54 203 1.0 0.0 0.00 0.00 0.00 43 1007.4
20200404212322 54 203 1.0 4.0 0.00 0.00 0.00 43 1008.3
20200404212022 53 251 1.0 0.0 0.00 0.00 0.00 44 1007.4
20200404211822 54 222 2.0 4.0 0.00 0.00 0.00 43 1008.3
20200404211528 53 231 2.0 0.0 0.00 0.00 0.00 44 1007.3
20200404211321 53 201 1.0 11.0 0.00 0.00 0.00 44 1008.3
20200404211016 52 245 2.0 0.0 0.00 0.00 0.00 44 1007.3
20200404210835 53 229 1.0 6.0 0.00 0.00 0.00 43 1008.3
20200404210509 52 263 1.0 0.0 0.00 0.00 0.00 42 1007.3
20200404210333 52 47 1.0 4.0 0.00 0.00 0.00 42 1008.3
20200404210006 52 260 1.0 0.0 0.00 0.00 0.00 41 1007.3
20200404205829 52 193 1.0 5.0 0.00 0.00 0.00 41 1008.2
20200404205601 52 210 1.0 0.0 0.00 0.00 0.00 40 1007.3
20200404205501 52 210 2.0 0.0 0.00 0.00 0.00 40 1007.3
20200404205325 52 210 1.0 5.0 0.00 0.00 0.00 40 1008.2
20200404205053 52 146 1.0 0.0 0.00 0.00 0.00 41 1007.3
20200404204822 52 202 2.0 5.0 0.00 0.00 0.00 40 1008.2
20200404204630 52 179 1.0 0.0 0.00 0.00 0.00 40 1007.3
20200404204334 52 201 2.0 4.0 0.00 0.00 0.00 41 1008.5
20200404204034 51 218 1.0 0.0 0.00 0.00 0.00 42 1007.6
20200404203829 52 221 0.0 4.0 0.00 0.00 0.00 43 1008.5
20200404203521 51 221 1.0 0.0 0.00 0.00 0.00 43 1007.6
20200404203325 52 221 2.0 4.0 0.00 0.00 0.00 43 1008.5
20200404203014 51 193 1.0 0.0 0.00 0.00 0.00 43 1008.1
20200404202838 52 193 0.0 5.0 0.00 0.00 0.00 44 1009.0
20200404202604 51 226 1.0 0.0 0.00 0.00 0.00 43 1008.1
20200404202333 52 212 1.0 5.0 0.00 0.00 0.00 43 1009.0
20200404202046 51 203 0.0 0.0 0.00 0.00 0.00 43 1008.1
20200404201828 52 195 0.0 4.0 0.00 0.00 0.00 43 1009.0
20200404201619 51 195 0.0 0.0 0.00 0.00 0.00 43 1008.1
20200404201322 52 264 0.0 3.0 0.00 0.00 0.00 43 1009.3
20200404201019 52 248 1.0 0.0 0.00 0.00 0.00 42 1007.6
20200404200836 52 252 1.0 4.0 0.00 0.00 0.00 42 1009.3
20200404200513 52 260 1.0 0.0 0.00 0.00 0.00 41 1007.6
20200404200332 52 331 2.0 4.0 0.00 0.00 0.00 41 1009.3
20200404200149 52 336 1.0 0.0 0.00 0.00 0.00 41 1007.6
20200404195826 53 189 1.0 4.0 0.00 0.00 0.00 41 1009.1
20200404195549 52 350 1.0 0.0 0.00 0.00 0.00 41 1007.3
20200404195321 53 14 1.0 11.0 0.00 0.00 0.00 40 1009.1
20200404195036 53 285 1.0 0.0 0.00 0.00 0.00 40 1007.3
20200404194838 54 201 3.0 11.0 0.00 0.00 0.00 39 1009.1
20200404194532 53 201 1.0 0.0 0.00 0.00 0.00 39 1007.5
20200404194332 54 239 1.0 5.0 0.00 0.00 0.00 38 1009.2
20200404194014 54 36 1.0 0.0 0.00 0.00 0.00 38 1007.5
20200404193826 54 250 1.0 6.0 0.00 0.00 0.00 38 1009.2
20200404193557 54 261 1.0 0.0 0.00 0.00 0.00 38 1007.5
20200404193322 54 299 0.0 6.0 0.00 0.00 0.00 38 1009.2
20200404193101 54 240 2.0 0.0 0.00 0.00 0.00 37 1007.5
20200404192836 55 216 1.0 7.0 0.00 0.00 0.00 37 1009.6
20200404192534 54 262 1.0 0.0 0.00 0.00 0.00 37 1007.0
20200404192331 55 343 2.0 7.0 0.00 0.00 0.00 36 1009.6
20200404192025 55 193 1.0 0.0 0.00 0.00 0.00 36 1007.0
20200404191831 56 178 1.0 5.0 0.00 0.00 0.00 36 1009.6
20200404191519 56 353 1.0 0.0 0.00 0.00 0.00 35 1006.9
20200404191324 56 304 1.0 3.0 0.00 0.00 0.00 34 1009.5
20200404191011 56 137 1.0 0.0 0.00 0.00 0.00 35 1006.9
20200404190817 57 228 1.0 4.0 0.00 0.00 0.00 34 1009.5
20200404190558 56 239 1.0 0.0 0.00 0.00 0.00 35 1006.9
20200404190336 57 199 2.0 5.0 0.00 0.00 0.00 34 1009.5
20200404190240 56 249 1.0 0.0 0.00 0.00 0.00 35 1006.9
20200404185831 57 202 2.0 5.0 0.00 0.00 0.00 34 1009.9
20200404185533 56 227 1.0 0.0 0.00 0.00 0.00 35 1007.3
20200404185325 57 224 2.0 5.0 0.00 0.00 0.00 35 1009.9
20200404185025 56 172 1.0 0.0 0.00 0.00 0.00 34 1007.3
20200404184840 56 189 1.0 5.0 0.00 0.00 0.00 35 1009.9
20200404184509 55 336 1.0 0.0 0.00 0.00 0.00 35 1007.8
20200404184333 55 240 0.0 5.0 0.00 0.00 0.00 36 1010.4
20200404184057 54 212 2.0 0.0 0.00 0.00 0.00 35 1007.8
20200404183828 54 281 1.0 5.0 0.00 0.00 0.00 35 1010.4
20200404183546 54 352 2.0 0.0 0.00 0.00 0.00 35 1007.8
20200404183323 54 217 1.0 6.0 0.00 0.00 0.00 34 1010.4
20200404183035 54 224 2.0 0.0 0.00 0.00 0.00 34 1007.8
20200404182836 55 251 1.0 6.0 0.00 0.00 0.00 34 1010.8
20200404182518 55 321 2.0 0.0 0.00 0.00 0.00 33 1008.3
20200404182330 55 334 2.0 4.0 0.00 0.00 0.00 33 1010.8
20200404182005 55 37 2.0 0.0 0.00 0.00 0.00 33 1008.3
20200404181826 55 196 1.0 6.0 0.00 0.00 0.00 34 1010.8
20200404181609 54 31 3.0 0.0 0.00 0.00 0.00 33 1008.3
20200404181339 54 39 2.0 9.0 0.00 0.00 0.00 33 1010.6
20200404181035 54 343 2.0 0.0 0.00 0.00 0.00 33 1008.9
20200404180833 55 343 3.0 10.0 0.00 0.00 0.00 32 1010.6
20200404180529 54 16 1.0 0.0 0.00 0.00 0.00 34 1008.9
20200404180331 54 243 4.0 10.0 0.00 0.00 0.00 34 1010.6
20200404180024 53 202 1.0 0.0 0.00 0.00 0.00 33 1008.9
20200404175829 54 304 2.0 10.0 0.00 0.00 0.00 33 1010.6
20200404175526 53 351 1.0 0.0 0.00 0.00 0.00 32 1008.9
20200404175324 54 219 1.0 10.0 0.00 0.00 0.00 32 1010.6
20200404175032 53 304 1.0 0.0 0.00 0.00 0.00 31 1008.9
20200404174822 54 314 2.0 5.0 0.00 0.00 0.00 31 1010.6
20200404174528 54 262 1.0 0.0 0.00 0.00 0.00 31 1008.9
20200404174320 54 262 0.0 5.0 0.00 0.00 0.00 30 1010.6
20200404174017 54 184 1.0 0.0 0.00 0.00 0.00 30 1008.9
20200404173832 55 195 2.0 5.0 0.00 0.00 0.00 31 1010.6
20200404173514 54 174 0.0 0.0 0.00 0.00 0.00 32 1008.9
20200404173330 54 154 0.0 3.0 0.00 0.00 0.00 32 1010.6
20200404173013 54 188 1.0 0.0 0.00 0.00 0.00 32 1009.4
20200404172824 54 210 0.0 6.0 0.00 0.00 0.00 32 1011.1
20200404172557 53 215 2.0 0.0 0.00 0.00 0.00 33 1009.4
20200404172501 53 215 3.0 0.0 0.00 0.00 0.00 32 1009.4
20200404172318 53 188 2.0 9.0 0.00 0.00 0.00 32 1011.1
20200404172057 53 214 2.0 0.0 0.00 0.00 0.00 33 1009.4
20200404172000 53 199 2.0 0.0 0.00 0.00 0.00 33 1009.4
20200404171839 53 210 3.0 7.0 0.00 0.00 0.00 33 1011.1
20200404171614 53 216 2.0 0.0 0.00 0.00 0.00 33 1009.4
20200404171333 53 314 1.0 7.0 0.00 0.00 0.00 35 1011.3
20200404171055 52 212 2.0 0.0 0.00 0.00 0.00 33 1009.6
20200404170829 53 191 2.0 6.0 0.00 0.00 0.00 35 1011.3
20200404170548 51 185 1.0 0.0 0.00 0.00 0.00 36 1009.6
20200404170329 51 120 1.0 5.0 0.00 0.00 0.00 37 1011.3
20200404170146 50 120 1.0 0.0 0.00 0.00 0.00 37 1009.6
20200404165823 50 170 2.0 5.0 0.00 0.00 0.00 37 1011.6
20200404165558 49 314 1.0 0.0 0.00 0.00 0.00 37 1010.0
20200404165339 50 309 1.0 4.0 0.00 0.00 0.00 38 1011.6
20200404165036 49 160 1.0 0.0 0.00 0.00 0.00 37 1010.0
20200404164837 50 160 1.0 4.0 0.00 0.00 0.00 38 1011.6
20200404164604 49 192 1.0 0.0 0.00 0.00 0.00 38 1010.0
20200404164333 50 186 0.0 4.0 0.00 0.00 0.00 37 1011.3
20200404164025 49 189 1.0 0.0 0.00 0.00 0.00 37 1010.4
20200404163828 49 185 1.0 4.0 0.00 0.00 0.00 40 1011.3
20200404163513 48 163 1.0 0.0 0.00 0.00 0.00 40 1010.4
20200404163340 48 118 1.0 4.0 0.00 0.00 0.00 41 1011.3
20200404163016 47 183 1.0 0.0 0.00 0.00 0.00 43 1011.5
20200404162833 47 149 0.0 3.0 0.00 0.00 0.00 44 1011.5
20200404162558 46 131 1.0 0.0 0.00 0.00 0.00 45 1011.5
20200404162328 46 163 1.0 4.0 0.00 0.00 0.00 45 1011.5
20200404162047 45 147 1.0 0.0 0.00 0.00 0.00 45 1011.5
20200404161823 45 172 1.0 4.0 0.00 0.00 0.00 46 1011.5
20200404161601 44 156 1.0 0.0 0.00 0.00 0.00 47 1011.5
20200404161333 44 154 2.0 7.0 0.00 0.00 0.00 48 1011.9
20200404161023 43 159 1.0 0.0 0.00 0.00 0.00 49 1011.9
20200404160826 43 183 1.0 7.0 0.00 0.00 0.00 50 1011.9
20200404160538 41 146 0.0 0.0 0.00 0.00 0.00 53 1011.9
20200404160530 39 131 0.0 0.0 0.00 0.00 0.00 57 1011.9
20200404160323 40 145 0.0 2.0 0.00 0.00 0.00 54 1011.9
20200404155833 38 131 1.0 2.0 0.00 0.00 0.00 62 1012.6
20200404155546 36 132 0.0 0.0 0.00 0.00 0.00 63 1012.7
20200404155325 36 132 1.0 2.0 0.00 0.00 0.00 63 1012.6
20200404155105 35 133 0.0 0.0 0.00 0.00 0.00 63 1012.7
20200404154821 36 133 0.0 0.0 0.00 0.00 0.00 63 1012.6
20200404154549 35 133 0.0 0.0 0.00 0.00 0.00 63 1013.0
20200404154336 35 133 0.0 0.0 0.00 0.00 0.00 64 1012.1
20200404153839 35 133 0.0 0.0 0.00 0.00 0.00 65 1012.1
20200404153511 35 133 0.0 0.0 0.00 0.00 0.00 65 1013.0
20200404153333 35 133 0.0 0.0 0.00 0.00 0.00 65 1012.1
20200404153136 34 133 0.0 0.0 0.00 0.00 0.00 65 1013.0
20200404152826 35 133 0.0 0.0 0.00 0.00 0.00 65 1012.3
20200404152537 34 133 0.0 0.0 0.00 0.00 0.00 65 1013.2
20200404152338 35 133 0.0 0.0 0.00 0.00 0.00 65 1012.3
20200404152041 34 133 0.0 0.0 0.00 0.00 0.00 65 1013.2
20200404151833 35 133 0.0 0.0 0.00 0.00 0.00 65 1012.3
20200404151517 34 133 0.0 0.0 0.00 0.00 0.00 65 1013.0
20200404151324 34 133 0.0 0.0 0.00 0.00 0.00 66 1012.1
20200404151021 34 133 0.0 0.0 0.00 0.00 0.00 66 1013.0
20200404150837 34 133 0.0 0.0 0.00 0.00 0.00 66 1012.1
20200404150557 34 133 0.0 0.0 0.00 0.00 0.00 66 1013.0
20200404150427 34 133 0.0 0.0 0.00 0.00 0.00 65 1012.1
20200404150133 34 133 0.0 0.0 0.00 0.00 0.00 65 1013.0
20200404145824 34 133 0.0 0.0 0.00 0.00 0.00 65 1012.1
20200404145536 33 133 0.0 0.0 0.00 0.00 0.00 65 1013.0
20200404145337 34 133 0.0 0.0 0.00 0.00 0.00 66 1012.1
20200404145030 33 133 0.0 0.0 0.00 0.00 0.00 65 1013.0
20200404144830 34 133 0.0 0.0 0.00 0.00 0.00 66 1012.1
20200404144531 33 133 0.0 0.0 0.00 0.00 0.00 66 1013.2
20200404144322 34 133 0.0 0.0 0.00 0.00 0.00 66 1012.3
20200404144106 33 133 0.0 0.0 0.00 0.00 0.00 66 1013.2
20200404144001 33 133 0.0 0.0 0.00 0.00 0.00 66 1013.2
20200404143836 34 133 0.0 0.0 0.00 0.00 0.00 66 1012.3
20200404143547 33 133 0.0 0.0 0.00 0.00 0.00 66 1013.2
20200404143329 34 133 0.0 0.0 0.00 0.00 0.00 66 1012.3
20200404143116 33 133 0.0 0.0 0.00 0.00 0.00 66 1013.2
20200404142821 33 133 0.0 0.0 0.00 0.00 0.00 65 1012.5
20200404142523 33 133 0.0 0.0 0.00 0.00 0.00 66 1013.4
20200404142334 33 133 0.0 0.0 0.00 0.00 0.00 66 1012.5
20200404142029 33 133 0.0 0.0 0.00 0.00 0.00 65 1013.4
20200404141829 33 133 0.0 0.0 0.00 0.00 0.00 65 1012.5
20200404141520 33 133 0.0 0.0 0.00 0.00 0.00 65 1012.7
20200404141320 33 133 0.0 0.0 0.00 0.00 0.00 65 1012.6
20200404141050 33 133 0.0 0.0 0.00 0.00 0.00 65 1012.7
20200404140829 33 133 0.0 0.0 0.00 0.00 0.00 65 1012.6
20200404140540 33 133 0.0 0.0 0.00 0.00 0.00 65 1012.7
20200404140322 33 133 0.0 0.0 0.00 0.00 0.00 65 1012.6
20200404140043 33 133 0.0 0.0 0.00 0.00 0.00 65 1012.7
20200404135833 33 133 0.0 0.0 0.00 0.00 0.00 65 1012.6
20200404135526 33 133 0.0 0.0 0.00 0.00 0.00 65 1012.7
20200404135326 33 133 0.0 0.0 0.00 0.00 0.00 65 1012.6
20200404135100 33 133 0.0 0.0 0.00 0.00 0.00 65 1012.7
20200404135004 33 133 0.0 0.0 0.00 0.00 0.00 65 1012.7
20200404134822 33 133 0.0 0.0 0.00 0.00 0.00 65 1012.6
20200404134630 33 133 0.0 0.0 0.00 0.00 0.00 65 1012.7
20200404134338 33 133 0.0 0.0 0.00 0.00 0.00 65 1012.6
20200404134106 33 133 0.0 0.0 0.00 0.00 0.00 65 1012.6
20200404133834 33 133 0.0 0.0 0.00 0.00 0.00 65 1012.6
20200404133552 33 133 0.0 0.0 0.00 0.00 0.00 65 1012.6
20200404133331 33 133 0.0 0.0 0.00 0.00 0.00 65 1012.6
20200404133130 33 133 0.0 0.0 0.00 0.00 0.00 65 1012.6
20200404132826 33 133 0.0 0.0 0.00 0.00 0.00 65 1012.7
20200404132542 33 133 0.0 0.0 0.00 0.00 0.00 65 1012.8
20200404132323 33 133 0.0 0.0 0.00 0.00 0.00 65 1012.7
20200404132042 33 133 0.0 0.0 0.00 0.00 0.00 66 1012.8
20200404131822 33 133 0.0 0.0 0.00 0.00 0.00 65 1012.7
20200404131552 33 133 0.0 0.0 0.00 0.00 0.00 66 1012.8
20200404131335 33 133 0.0 0.0 0.00 0.00 0.00 65 1012.6
20200404131028 33 133 0.0 0.0 0.00 0.00 0.00 65 1012.6
20200404130832 33 133 0.0 0.0 0.00 0.00 0.00 65 1012.6
20200404130528 33 133 0.0 0.0 0.00 0.00 0.00 65 1012.6
20200404130333 33 133 0.0 0.0 0.00 0.00 0.00 65 1012.6
20200404130039 33 133 0.0 0.0 0.00 0.00 0.00 65 1012.6
20200404125829 33 133 0.0 0.0 0.00 0.00 0.00 65 1012.6
20200404125520 33 133 0.0 0.0 0.00 0.00 0.00 65 1012.6
20200404125324 33 133 0.0 0.0 0.00 0.00 0.00 65 1012.6
20200404125022 33 133 0.0 0.0 0.00 0.00 0.00 65 1012.6
20200404124822 33 133 0.0 0.0 0.00 0.00 0.00 65 1012.6
20200404124520 33 133 0.0 0.0 0.00 0.00 0.00 65 1012.5
20200404124337 33 133 0.0 0.0 0.00 0.00 0.00 65 1012.4
20200404124015 32 133 0.0 0.0 0.00 0.00 0.00 65 1012.5
20200404123833 33 133 0.0 0.0 0.00 0.00 0.00 65 1012.4
20200404123510 32 133 0.0 0.0 0.00 0.00 0.00 65 1012.5
20200404123331 33 133 0.0 0.0 0.00 0.00 0.00 65 1012.4
20200404123134 33 133 0.0 0.0 0.00 0.00 0.00 65 1012.5
20200404122826 33 133 0.0 0.0 0.00 0.00 0.00 64 1012.7
20200404122538 32 133 0.0 0.0 0.00 0.00 0.00 65 1012.7
20200404122339 33 133 0.0 0.0 0.00 0.00 0.00 65 1012.7
20200404122039 32 133 0.0 0.0 0.00 0.00 0.00 65 1012.7
20200404121836 33 133 0.0 0.0 0.00 0.00 0.00 64 1012.7
20200404121548 33 133 0.0 0.0 0.00 0.00 0.00 64 1012.5
20200404121328 33 133 0.0 2.0 0.00 0.00 0.00 64 1013.2
20200404121007 33 133 0.0 0.0 0.00 0.00 0.00 64 1012.5
20200404120823 33 133 0.0 2.0 0.00 0.00 0.00 64 1013.2
20200404120554 33 133 0.0 0.0 0.00 0.00 0.00 64 1012.5
20200404120353 33 87 0.0 0.0 0.00 0.00 0.00 63 1013.2
20200404120123 33 87 0.0 0.0 0.00 0.00 0.00 64 1012.5
20200404115832 33 87 0.0 0.0 0.00 0.00 0.00 63 1013.2
20200404115526 33 87 0.0 0.0 0.00 0.00 0.00 63 1012.5
20200404115326 33 87 0.0 0.0 0.00 0.00 0.00 63 1013.2
20200404115016 33 87 0.0 0.0 0.00 0.00 0.00 63 1012.5
20200404114821 33 87 0.0 0.0 0.00 0.00 0.00 63 1013.2
20200404114523 33 87 0.0 0.0 0.00 0.00 0.00 62 1012.2
20200404114334 33 87 0.0 0.0 0.00 0.00 0.00 62 1013.0
20200404114055 33 87 0.0 0.0 0.00 0.00 0.00 62 1012.2
20200404113829 34 87 0.0 0.0 0.00 0.00 0.00 62 1013.0
20200404113602 33 87 0.0 0.0 0.00 0.00 0.00 61 1012.2
20200404113325 34 87 0.0 0.0 0.00 0.00 0.00 61 1013.0
20200404113135 33 87 0.0 0.0 0.00 0.00 0.00 61 1012.2
20200404112839 34 87 0.0 0.0 0.00 0.00 0.00 61 1013.0
20200404112518 33 87 0.0 0.0 0.00 0.00 0.00 61 1012.3
20200404112332 34 87 0.0 0.0 0.00 0.00 0.00 61 1013.0
20200404112008 34 87 0.0 0.0 0.00 0.00 0.00 61 1012.3
20200404111828 34 87 0.0 0.0 0.00 0.00 0.00 61 1013.0
20200404111644 34 87 0.0 0.0 0.00 0.00 0.00 60 1012.3
20200404111321 34 87 0.0 0.0 0.00 0.00 0.00 60 1013.7
20200404111047 34 87 0.0 0.0 0.00 0.00 0.00 60 1012.1
20200404110836 34 87 0.0 0.0 0.00 0.00 0.00 60 1013.7
20200404110540 34 87 0.0 0.0 0.00 0.00 0.00 60 1012.1
20200404110051 34 87 0.0 0.0 0.00 0.00 0.00 59 1012.1
20200404105838 35 87 0.0 0.0 0.00 0.00 0.00 59 1013.9
20200404105532 34 87 0.0 0.0 0.00 0.00 0.00 59 1012.3
20200404105332 35 87 0.0 0.0 0.00 0.00 0.00 59 1013.9
20200404105034 34 87 0.0 0.0 0.00 0.00 0.00 59 1012.3
20200404104831 35 87 0.0 0.0 0.00 0.00 0.00 59 1013.9
20200404104516 35 87 0.0 0.0 0.00 0.00 0.00 58 1012.1
20200404104326 35 87 0.0 0.0 0.00 0.00 0.00 58 1013.7
20200404104101 35 87 0.0 0.0 0.00 0.00 0.00 58 1012.1
20200404103822 35 87 0.0 0.0 0.00 0.00 0.00 58 1013.7
20200404103540 35 87 0.0 0.0 0.00 0.00 0.00 58 1012.1
20200404103336 36 87 0.0 0.0 0.00 0.00 0.00 58 1013.7
20200404103049 35 87 0.0 0.0 0.00 0.00 0.00 58 1012.1
20200404102833 36 87 0.0 0.0 0.00 0.00 0.00 58 1013.7
20200404102524 35 87 0.0 0.0 0.00 0.00 0.00 58 1012.1
20200404102327 36 87 0.0 0.0 0.00 0.00 0.00 58 1013.7
20200404102013 35 87 0.0 0.0 0.00 0.00 0.00 58 1012.1
20200404101824 36 87 0.0 0.0 0.00 0.00 0.00 58 1013.7
20200404101653 36 87 0.0 0.0 0.00 0.00 0.00 58 1012.1
20200404101336 36 87 0.0 0.0 0.00 0.00 0.00 58 1013.7
20200404101053 36 87 0.0 0.0 0.00 0.00 0.00 58 1012.1
20200404100830 36 87 0.0 0.0 0.00 0.00 0.00 58 1013.7
20200404100534 36 87 0.0 0.0 0.00 0.00 0.00 57 1012.1
20200404100326 37 87 0.0 0.0 0.00 0.00 0.00 56 1013.7
20200404100101 36 87 0.0 0.0 0.00 0.00 0.00 56 1012.5
20200404095820 37 87 0.0 0.0 0.00 0.00 0.00 56 1014.1
20200404095519 36 87 0.0 0.0 0.00 0.00 0.00 56 1012.5
20200404095335 37 87 0.0 0.0 0.00 0.00 0.00 56 1014.1
20200404095100 36 87 0.0 0.0 0.00 0.00 0.00 55 1012.5
20200404095002 36 87 0.0 0.0 0.00 0.00 0.00 55 1012.5
20200404094830 37 87 0.0 0.0 0.00 0.00 0.00 54 1014.1
20200404094618 37 87 0.0 0.0 0.00 0.00 0.00 54 1012.5
20200404094324 37 87 0.0 1.0 0.00 0.00 0.00 54 1013.9
20200404094054 37 87 0.0 0.0 0.00 0.00 0.00 54 1012.3
20200404093823 37 87 0.0 1.0 0.00 0.00 0.00 55 1013.9
20200404093550 37 87 0.0 0.0 0.00 0.00 0.00 54 1012.3
20200404093323 37 87 1.0 1.0 0.00 0.00 0.00 54 1013.9
20200404093134 37 87 0.0 0.0 0.00 0.00 0.00 54 1012.3
20200404092835 38 87 0.0 0.0 0.00 0.00 0.00 54 1014.0
20200404092541 37 87 0.0 0.0 0.00 0.00 0.00 53 1012.4
20200404092332 38 87 0.0 0.0 0.00 0.00 0.00 53 1014.0
20200404092042 37 87 0.0 0.0 0.00 0.00 0.00 53 1012.4
20200404091622 38 87 0.0 0.0 0.00 0.00 0.00 53 1012.4
20200404091323 38 87 0.0 1.0 0.00 0.00 0.00 53 1014.0
20200404091044 38 87 0.0 0.0 0.00 0.00 0.00 53 1012.4
20200404090818 38 87 0.0 0.0 0.00 0.00 0.00 53 1014.0
20200404090535 38 87 0.0 0.0 0.00 0.00 0.00 52 1012.4
20200404090319 39 87 0.0 0.0 0.00 0.00 0.00 51 1014.0
20200404090106 38 87 0.0 0.0 0.00 0.00 0.00 51 1012.4
20200404085836 39 87 0.0 0.0 0.00 0.00 0.00 51 1014.6
20200404085525 39 87 0.0 0.0 0.00 0.00 0.00 51 1012.2
20200404085332 39 87 0.0 1.0 0.00 0.00 0.00 50 1014.6
20200404085024 39 87 0.0 0.0 0.00 0.00 0.00 51 1012.2
20200404084829 40 87 0.0 1.0 0.00 0.00 0.00 50 1014.6
20200404084552 39 87 0.0 0.0 0.00 0.00 0.00 50 1012.1
20200404084325 40 87 0.0 1.0 0.00 0.00 0.00 50 1014.6
20200404084023 40 87 0.0 0.0 0.00 0.00 0.00 49 1012.1
20200404083823 40 87 0.0 1.0 0.00 0.00 0.00 49 1014.6
20200404083520 40 87 0.0 0.0 0.00 0.00 0.00 49 1012.1
20200404083321 41 87 0.0 1.0 0.00 0.00 0.00 48 1014.6
20200404083128 40 87 0.0 0.0 0.00 0.00 0.00 48 1012.1
20200404082836 41 87 0.0 1.0 0.00 0.00 0.00 48 1014.5
20200404082511 40 87 0.0 0.0 0.00 0.00 0.00 48 1012.1
20200404082333 41 87 0.0 2.0 0.00 0.00 0.00 48 1014.5
20200404082100 41 87 0.0 0.0 0.00 0.00 0.00 47 1012.1
20200404082002 41 87 0.0 0.0 0.00 0.00 0.00 47 1012.1
20200404081826 41 87 0.0 2.0 0.00 0.00 0.00 47 1014.5
20200404081603 41 87 0.0 0.0 0.00 0.00 0.00 47 1012.1
20200404081337 42 87 0.0 3.0 0.00 0.00 0.00 47 1014.5
20200404081038 41 87 0.0 0.0 0.00 0.00 0.00 47 1012.1
20200404080829 42 83 1.0 3.0 0.00 0.00 0.00 47 1014.5
20200404080538 41 83 0.0 0.0 0.00 0.00 0.00 47 1012.1
20200404080326 42 68 0.0 2.0 0.00 0.00 0.00 46 1014.5
20200404080015 42 68 0.0 0.0 0.00 0.00 0.00 47 1011.9
20200404075836 42 68 0.0 2.0 0.00 0.00 0.00 47 1014.3
20200404075510 42 147 0.0 0.0 0.00 0.00 0.00 46 1011.9
20200404075330 42 147 0.0 2.0 0.00 0.00 0.00 46 1014.3
20200404075054 42 147 0.0 0.0 0.00 0.00 0.00 46 1011.9
20200404074824 43 148 0.0 3.0 0.00 0.00 0.00 45 1014.3
20200404074612 42 148 0.0 0.0 0.00 0.00 0.00 45 1011.9
20200404074336 43 148 1.0 3.0 0.00 0.00 0.00 44 1014.6
20200404074035 42 149 0.0 0.0 0.00 0.00 0.00 45 1012.2
20200404073829 43 300 0.0 2.0 0.00 0.00 0.00 45 1014.6
20200404073524 43 300 0.0 0.0 0.00 0.00 0.00 45 1012.2
20200404073326 43 300 0.0 2.0 0.00 0.00 0.00 45 1014.6
20200404073048 43 300 0.0 0.0 0.00 0.00 0.00 45 1012.4
20200404072838 44 300 0.0 2.0 0.00 0.00 0.00 44 1014.8
20200404072612 43 300 0.0 0.0 0.00 0.00 0.00 44 1012.4
20200404072502 43 300 0.0 0.0 0.00 0.00 0.00 44 1012.4
20200404072329 44 285 0.0 2.0 0.00 0.00 0.00 44 1014.8
20200404072050 43 274 0.0 0.0 0.00 0.00 0.00 44 1012.4
20200404071823 44 238 0.0 5.0 0.00 0.00 0.00 44 1014.8
20200404071544 43 238 1.0 0.0 0.00 0.00 0.00 44 1012.4
20200404071335 44 238 0.0 5.0 0.00 0.00 0.00 44 1015.1
20200404071026 43 360 1.0 0.0 0.00 0.00 0.00 45 1012.7
20200404070831 44 219 1.0 7.0 0.00 0.00 0.00 45 1015.1
20200404070517 43 172 0.0 0.0 0.00 0.00 0.00 45 1012.7
20200404070344 44 219 0.0 7.0 0.00 0.00 0.00 45 1015.1
20200404070121 43 218 0.0 0.0 0.00 0.00 0.00 46 1012.7
20200404065830 43 203 0.0 6.0 0.00 0.00 0.00 46 1015.2
20200404065554 43 202 0.0 0.0 0.00 0.00 0.00 46 1012.8
20200404065321 43 199 0.0 3.0 0.00 0.00 0.00 47 1015.2
20200404065032 43 164 0.0 0.0 0.00 0.00 0.00 47 1012.8
20200404064837 43 164 0.0 3.0 0.00 0.00 0.00 46 1015.2
20200404064549 43 162 0.0 0.0 0.00 0.00 0.00 47 1013.0
20200404064331 43 222 0.0 2.0 0.00 0.00 0.00 48 1015.4
20200404064012 43 225 0.0 0.0 0.00 0.00 0.00 48 1013.0
20200404063822 43 249 0.0 1.0 0.00 0.00 0.00 47 1015.4
20200404063608 43 232 0.0 0.0 0.00 0.00 0.00 48 1013.0
20200404063502 43 232 0.0 0.0 0.00 0.00 0.00 48 1013.0
20200404063337 43 220 0.0 1.0 0.00 0.00 0.00 48 1015.4
20200404063219 43 220 0.0 0.0 0.00 0.00 0.00 49 1013.0
20200404062828 43 220 0.0 1.0 0.00 0.00 0.00 48 1015.6
20200404062538 43 349 0.0 0.0 0.00 0.00 0.00 48 1013.2
20200404062321 43 349 0.0 2.0 0.00 0.00 0.00 48 1015.6
20200404062019 42 224 1.0 0.0 0.00 0.00 0.00 48 1013.2
20200404061834 43 241 0.0 3.0 0.00 0.00 0.00 48 1015.6
20200404061513 42 245 1.0 0.0 0.00 0.00 0.00 48 1013.9
20200404061428 43 331 2.0 3.0 0.00 0.00 0.00 48 1015.4
20200404061055 42 45 0.0 0.0 0.00 0.00 0.00 48 1013.9
20200404060818 43 210 0.0 3.0 0.00 0.00 0.00 47 1015.4
20200404060544 42 337 0.0 0.0 0.00 0.00 0.00 47 1013.9
20200404060335 43 337 1.0 3.0 0.00 0.00 0.00 48 1015.4
20200404060108 42 122 0.0 0.0 0.00 0.00 0.00 48 1013.9
20200404055826 42 122 0.0 3.0 0.00 0.00 0.00 48 1015.5
20200404055522 42 122 0.0 0.0 0.00 0.00 0.00 48 1013.9
20200404055334 42 122 1.0 3.0 0.00 0.00 0.00 48 1015.5
20200404055012 42 146 0.0 0.0 0.00 0.00 0.00 48 1013.9
20200404054828 42 146 0.0 2.0 0.00 0.00 0.00 49 1015.5
20200404054635 41 139 0.0 0.0 0.00 0.00 0.00 49 1013.9
20200404054339 42 258 0.0 2.0 0.00 0.00 0.00 49 1015.3
20200404054059 41 212 0.0 0.0 0.00 0.00 0.00 49 1013.8
20200404053831 42 212 0.0 2.0 0.00 0.00 0.00 50 1015.3
20200404053547 41 219 0.0 0.0 0.00 0.00 0.00 49 1013.8
20200404053325 42 219 0.0 2.0 0.00 0.00 0.00 49 1015.3
20200404053054 41 219 0.0 0.0 0.00 0.00 0.00 49 1013.8
20200404052820 42 99 0.0 2.0 0.00 0.00 0.00 48 1015.4
20200404052523 41 102 0.0 0.0 0.00 0.00 0.00 47 1013.9
20200404052337 42 102 0.0 1.0 0.00 0.00 0.00 47 1015.4
20200404052032 41 102 0.0 0.0 0.00 0.00 0.00 46 1013.9
20200404051834 42 102 0.0 1.0 0.00 0.00 0.00 46 1015.4
20200404051539 41 102 0.0 0.0 0.00 0.00 0.00 45 1014.8
20200404051329 42 160 0.0 0.0 0.00 0.00 0.00 45 1015.5
20200404051014 42 160 0.0 0.0 0.00 0.00 0.00 44 1014.8
20200404050825 42 160 0.0 0.0 0.00 0.00 0.00 44 1015.5
20200404050514 42 160 0.0 0.0 0.00 0.00 0.00 44 1014.8
20200404050326 43 160 0.0 0.0 0.00 0.00 0.00 43 1015.5
20200404050011 42 160 0.0 0.0 0.00 0.00 0.00 43 1014.5
20200404045821 43 160 0.0 0.0 0.00 0.00 0.00 42 1015.2
20200404045507 42 160 0.0 0.0 0.00 0.00 0.00 42 1014.5
20200404045337 43 160 0.0 0.0 0.00 0.00 0.00 43 1015.2
20200404045005 43 160 0.0 0.0 0.00 0.00 0.00 42 1014.5
20200404044836 43 160 0.0 0.0 0.00 0.00 0.00 42 1015.2
20200404044649 43 160 0.0 0.0 0.00 0.00 0.00 42 1014.5
20200404044331 43 160 0.0 0.0 0.00 0.00 0.00 42 1014.8
20200404044058 43 160 0.0 0.0 0.00 0.00 0.00 42 1014.1
20200404043827 44 160 0.0 0.0 0.00 0.00 0.00 42 1014.8
20200404043555 43 160 0.0 0.0 0.00 0.00 0.00 41 1014.1
20200404043325 44 160 0.0 0.0 0.00 0.00 0.00 41 1014.8
20200404043145 44 160 0.0 0.0 0.00 0.00 0.00 40 1014.1
20200404042840 44 160 0.0 0.0 0.00 0.00 0.00 41 1014.8
20200404042540 44 160 0.0 0.0 0.00 0.00 0.00 41 1014.1
20200404042336 45 160 0.0 0.0 0.00 0.00 0.00 40 1014.8
20200404042036 44 160 0.0 0.0 0.00 0.00 0.00 39 1014.1
20200404041833 45 160 0.0 0.0 0.00 0.00 0.00 39 1014.8
20200404041602 45 160 0.0 0.0 0.00 0.00 0.00 39 1014.1
20200404041326 45 160 0.0 0.0 0.00 0.00 0.00 39 1015.2
20200404041017 45 160 0.0 0.0 0.00 0.00 0.00 39 1015.3
20200404040824 46 160 0.0 0.0 0.00 0.00 0.00 39 1015.2
20200404040510 45 160 0.0 0.0 0.00 0.00 0.00 38 1015.3
20200404040340 46 160 0.0 0.0 0.00 0.00 0.00 38 1015.2
20200404040332 45 160 0.0 0.0 0.00 0.00 0.00 38 1015.3
20200404035834 46 160 0.0 0.0 0.00 0.00 0.00 38 1015.0
20200404035606 46 160 0.0 0.0 0.00 0.00 0.00 38 1015.1
20200404035328 46 160 0.0 2.0 0.00 0.00 0.00 37 1015.0
20200404035032 46 160 0.0 0.0 0.00 0.00 0.00 37 1015.1
20200404034823 46 160 0.0 2.0 0.00 0.00 0.00 36 1015.0
20200404034604 46 158 0.0 0.0 0.00 0.00 0.00 37 1014.8
20200404034338 47 160 0.0 1.0 0.00 0.00 0.00 37 1014.7
20200404034011 46 160 0.0 0.0 0.00 0.00 0.00 37 1014.8
20200404033832 47 160 0.0 2.0 0.00 0.00 0.00 37 1014.7
20200404033605 46 160 0.0 0.0 0.00 0.00 0.00 37 1014.8
20200404033503 46 160 0.0 0.0 0.00 0.00 0.00 37 1014.8
20200404033327 47 160 0.0 3.0 0.00 0.00 0.00 37 1014.7
20200404033212 46 160 0.0 0.0 0.00 0.00 0.00 36 1014.8
20200404032840 47 158 0.0 3.0 0.00 0.00 0.00 36 1014.3
20200404032552 47 176 0.0 0.0 0.00 0.00 0.00 35 1014.5
20200404032334 47 187 0.0 1.0 0.00 0.00 0.00 35 1014.3
20200404032033 47 187 0.0 0.0 0.00 0.00 0.00 35 1014.5
20200404031829 47 187 0.0 1.0 0.00 0.00 0.00 35 1014.3
20200404031523 47 187 0.0 0.0 0.00 0.00 0.00 35 1015.8
20200404031325 48 187 0.0 1.0 0.00 0.00 0.00 35 1014.0
20200404031007 47 187 0.0 0.0 0.00 0.00 0.00 34 1015.8
20200404030821 48 187 0.0 1.0 0.00 0.00 0.00 34 1014.0
20200404030607 48 187 0.0 0.0 0.00 0.00 0.00 34 1015.8
20200404030336 48 186 0.0 0.0 0.00 0.00 0.00 34 1014.0
20200404030048 48 187 0.0 0.0 0.00 0.00 0.00 34 1015.8
20200404025829 49 187 0.0 1.0 0.00 0.00 0.00 34 1013.9
20200404025525 48 186 0.0 0.0 0.00 0.00 0.00 33 1015.7
20200404025324 49 186 0.0 2.0 0.00 0.00 0.00 33 1013.9
20200404025025 49 187 0.0 0.0 0.00 0.00 0.00 33 1015.7
20200404024840 49 187 0.0 2.0 0.00 0.00 0.00 33 1013.9
20200404024509 49 187 0.0 0.0 0.00 0.00 0.00 33 1015.4
20200404024333 49 186 0.0 1.0 0.00 0.00 0.00 33 1014.4
20200404024058 49 186 0.0 0.0 0.00 0.00 0.00 33 1015.4
20200404023827 50 186 0.0 0.0 0.00 0.00 0.00 32 1014.4
20200404023545 50 187 0.0 0.0 0.00 0.00 0.00 31 1015.4
20200404023323 50 187 0.0 1.0 0.00 0.00 0.00 31 1014.4
20200404023125 50 187 0.0 0.0 0.00 0.00 0.00 31 1015.4
20200404022836 50 187 0.0 1.0 0.00 0.00 0.00 30 1014.3
20200404022520 50 186 0.0 0.0 0.00 0.00 0.00 31 1015.3
20200404022330 51 187 0.0 0.0 0.00 0.00 0.00 31 1014.3
20200404022006 50 187 0.0 0.0 0.00 0.00 0.00 30 1015.3
20200404021826 51 186 0.0 1.0 0.00 0.00 0.00 30 1014.3
20200404021754 50 187 0.0 0.0 0.00 0.00 0.00 30 1015.3
20200404021339 51 187 0.0 1.0 0.00 0.00 0.00 30 1013.8
20200404021035 51 187 0.0 0.0 0.00 0.00 0.00 30 1015.6
20200404020833 51 187 0.0 4.0 0.00 0.00 0.00 29 1013.8
20200404020532 51 187 0.0 0.0 0.00 0.00 0.00 30 1015.6
20200404020329 51 187 0.0 4.0 0.00 0.00 0.00 29 1013.8
20200404020039 51 187 0.0 0.0 0.00 0.00 0.00 29 1015.2
20200404015822 52 160 1.0 2.0 0.00 0.00 0.00 29 1014.2
20200404015601 51 193 0.0 0.0 0.00 0.00 0.00 28 1015.2
20200404015337 52 175 0.0 2.0 0.00 0.00 0.00 28 1014.2
20200404015048 52 175 0.0 0.0 0.00 0.00 0.00 28 1015.2
20200404014833 52 175 0.0 3.0 0.00 0.00 0.00 28 1014.2
20200404014538 52 175 1.0 0.0 0.00 0.00 0.00 28 1015.2
20200404014325 52 175 0.0 4.0 0.00 0.00 0.00 28 1014.3
20200404014028 52 166 1.0 0.0 0.00 0.00 0.00 28 1015.3
20200404013821 53 192 0.0 3.0 0.00 0.00 0.00 27 1014.3
20200404013515 52 218 0.0 0.0 0.00 0.00 0.00 27 1015.3
20200404013332 53 218 0.0 3.0 0.00 0.00 0.00 26 1014.3
20200404013105 52 218 0.0 0.0 0.00 0.00 0.00 27 1015.3
20200404013001 52 218 0.0 0.0 0.00 0.00 0.00 26 1015.3
20200404012828 53 160 0.0 2.0 0.00 0.00 0.00 26 1014.4
20200404012553 53 160 0.0 0.0 0.00 0.00 0.00 26 1015.3
20200404012324 53 160 0.0 3.0 0.00 0.00 0.00 26 1014.4
20200404012107 53 160 0.0 0.0 0.00 0.00 0.00 26 1015.3
20200404011822 53 175 1.0 3.0 0.00 0.00 0.00 26 1014.4
20200404011628 53 175 0.0 0.0 0.00 0.00 0.00 26 1015.3
20200404011336 53 175 0.0 3.0 0.00 0.00 0.00 26 1013.8
20200404011039 53 175 0.0 0.0 0.00 0.00 0.00 26 1014.8
20200404010834 53 203 0.0 3.0 0.00 0.00 0.00 27 1013.8
20200404010547 53 203 0.0 0.0 0.00 0.00 0.00 26 1014.8
20200404010334 54 203 1.0 3.0 0.00 0.00 0.00 26 1013.8
20200404010115 53 203 0.0 0.0 0.00 0.00 0.00 26 1014.8
20200404005832 54 255 0.0 5.0 0.00 0.00 0.00 26 1014.0
20200404005548 53 265 1.0 0.0 0.00 0.00 0.00 26 1014.9
20200404005331 54 265 0.0 5.0 0.00 0.00 0.00 25 1014.0
20200404005043 54 197 1.0 0.0 0.00 0.00 0.00 26 1014.9
20200404004945 54 193 2.0 5.0 0.00 0.00 0.00 26 1014.0
20200404004630 54 178 1.0 0.0 0.00 0.00 0.00 26 1014.9
20200404004324 54 190 0.0 5.0 0.00 0.00 0.00 25 1014.2
20200404004041 54 184 1.0 0.0 0.00 0.00 0.00 25 1015.2
20200404003821 55 189 3.0 15.0 0.00 0.00 0.00 25 1014.2
20200404003529 54 210 2.0 0.0 0.00 0.00 0.00 26 1015.2
20200404003339 55 212 1.0 15.0 0.00 0.00 0.00 26 1014.2
20200404003053 54 206 2.0 0.0 0.00 0.00 0.00 25 1015.2
20200404002833 55 202 3.0 7.0 0.00 0.00 0.00 25 1014.2
20200404002530 55 141 2.0 0.0 0.00 0.00 0.00 25 1015.2
20200404002332 55 180 0.0 7.0 0.00 0.00 0.00 25 1014.2
20200404002029 55 179 2.0 0.0 0.00 0.00 0.00 25 1015.2
20200404001832 55 222 3.0 7.0 0.00 0.00 0.00 25 1014.2
20200404001544 55 95 2.0 0.0 0.00 0.00 0.00 25 1015.2
20200404001318 55 210 1.0 12.0 0.00 0.00 0.00 25 1014.2
20200404001020 55 210 2.0 0.0 0.00 0.00 0.00 25 1015.2
20200404000836 56 219 1.0 12.0 0.00 0.00 0.00 25 1014.2
20200404000516 55 110 1.0 0.0 0.00 0.00 0.00 25 1015.2
20200404000335 56 304 0.0 9.0 0.00 0.00 0.00 24 1014.2
20200404000136 55 197 1.0 0.0 0.00 0.00 0.00 25 1015.2
20200403235823 56 226 0.0 9.0 0.00 0.00 0.00 25 1014.8
20200403235542 56 202 1.0 0.0 0.00 0.00 0.00 24 1014.9
20200403235336 57 197 3.0 7.0 0.00 0.00 0.00 24 1014.8
20200403235031 56 205 1.0 0.0 0.00 0.00 0.00 24 1014.9
20200403234829 57 58 2.0 7.0 0.00 0.00 0.00 23 1014.8
20200403234534 57 309 1.0 0.0 0.00 0.00 0.00 23 1015.0
20200403234321 57 234 1.0 5.0 0.00 0.00 0.00 24 1014.9
20200403234011 57 186 2.0 0.0 0.00 0.00 0.00 23 1015.0
20200403233833 58 60 2.0 5.0 0.00 0.00 0.00 23 1014.9
20200403233638 57 330 4.0 0.0 0.00 0.00 0.00 23 1015.0
20200403233327 58 331 2.0 2.0 0.00 0.00 0.00 23 1014.9
20200403233057 58 211 2.0 0.0 0.00 0.00 0.00 23 1015.0
20200403232822 58 211 2.0 6.0 0.00 0.00 0.00 23 1015.1
20200403232539 58 211 2.0 0.0 0.00 0.00 0.00 23 1015.2
20200403232321 58 211 1.0 6.0 0.00 0.00 0.00 23 1015.1
20200403232026 58 175 1.0 0.0 0.00 0.00 0.00 22 1015.2
20200403231839 58 331 2.0 6.0 0.00 0.00 0.00 22 1015.1
20200403231526 58 52 1.0 0.0 0.00 0.00 0.00 22 1015.2
20200403231334 58 331 1.0 7.0 0.00 0.00 0.00 22 1015.1
20200403231024 58 246 1.0 0.0 0.00 0.00 0.00 22 1015.2
20200403230829 58 336 2.0 7.0 0.00 0.00 0.00 22 1015.1
20200403230516 58 222 2.0 0.0 0.00 0.00 0.00 23 1015.2
20200403230327 58 223 1.0 6.0 0.00 0.00 0.00 23 1015.1
20200403230013 58 247 2.0 0.0 0.00 0.00 0.00 22 1015.2
20200403225822 58 344 3.0 6.0 0.00 0.00 0.00 21 1015.0
20200403225506 58 244 2.0 0.0 0.00 0.00 0.00 22 1015.2
20200403225338 58 337 2.0 4.0 0.00 0.00 0.00 22 1015.0
20200403225103 58 215 1.0 0.0 0.00 0.00 0.00 22 1015.2
20200403225007 58 273 1.0 0.0 0.00 0.00 0.00 22 1015.2
20200403224836 58 282 1.0 5.0 0.00 0.00 0.00 22 1015.0
20200403224630 58 25 1.0 0.0 0.00 0.00 0.00 21 1015.2
20200403224329 58 131 1.0 6.0 0.00 0.00 0.00 22 1015.2
20200403224052 58 341 2.0 0.0 0.00 0.00 0.00 22 1015.3
20200403223825 58 2 0.0 9.0 0.00 0.00 0.00 22 1015.2
20200403223554 58 314 2.0 0.0 0.00 0.00 0.00 20 1015.3
20200403223323 58 333 3.0 9.0 0.00 0.00 0.00 21 1015.2
20200403223246 58 58 1.0 0.0 0.00 0.00 0.00 21 1015.3